createdAt,value
2018-07-06T00:01:33.625Z,229.65
2018-07-06T00:04:21.501Z,215.90
2018-07-06T00:07:09.128Z,216.27
2018-07-06T00:09:57.035Z,220.30
2018-07-06T00:12:44.819Z,219.60
2018-07-06T00:15:32.423Z,225.00
2018-07-06T00:18:20.467Z,217.75
2018-07-06T00:21:08.181Z,222.95
2018-07-06T00:23:56.088Z,223.68
2018-07-06T00:26:44.363Z,216.93
2018-07-06T00:29:32.350Z,223.05
2018-07-06T00:32:20.277Z,226.75
2018-07-06T00:35:08.263Z,217.77
2018-07-06T00:37:56.762Z,215.35
2018-07-06T00:40:44.689Z,215.03
2018-07-06T00:43:32.452Z,211.72
2018-07-06T00:46:19.976Z,216.17
2018-07-06T00:49:07.905Z,211.10
2018-07-06T00:51:55.998Z,212.02
2018-07-06T00:54:43.654Z,217.55
2018-07-06T00:57:31.527Z,214.53
2018-07-06T01:00:20.327Z,223.78
2018-07-06T01:03:08.395Z,220.20
2018-07-06T01:05:56.360Z,218.20
2018-07-06T01:08:44.207Z,213.28
2018-07-06T01:11:31.985Z,234.03
2018-07-06T01:14:20.391Z,214.25
2018-07-06T01:17:12.368Z,227.18
2018-07-06T01:20:00.425Z,228.20
2018-07-06T01:22:48.224Z,220.20
2018-07-06T01:25:36.212Z,227.53
2018-07-06T01:28:23.968Z,224.20
2018-07-06T01:31:11.911Z,204.38
2018-07-06T01:34:00.270Z,215.80
2018-07-06T01:36:48.245Z,210.23
2018-07-06T01:39:36.003Z,216.85
2018-07-06T01:42:24.083Z,218.80
2018-07-06T01:45:11.971Z,216.80
2018-07-06T01:47:59.784Z,215.65
2018-07-06T01:50:47.682Z,215.40
2018-07-06T01:53:35.544Z,219.68
2018-07-06T01:56:23.373Z,217.70
2018-07-06T01:59:11.292Z,220.10
2018-07-06T02:01:59.195Z,213.25
2018-07-06T02:04:47.028Z,211.80
2018-07-06T02:07:34.795Z,215.82
2018-07-06T02:10:22.735Z,235.48
2018-07-06T02:13:10.736Z,222.67
2018-07-06T02:15:58.756Z,218.90
2018-07-06T02:18:46.826Z,226.95
2018-07-06T02:21:34.764Z,220.15
2018-07-06T02:24:22.695Z,222.55
2018-07-06T02:27:10.305Z,236.55
2018-07-06T02:29:58.034Z,219.20
2018-07-06T02:32:46.035Z,212.72
2018-07-06T02:35:39.819Z,222.98
2018-07-06T02:38:27.447Z,236.00
2018-07-06T02:41:15.352Z,222.50
2018-07-06T02:44:03.119Z,221.05
2018-07-06T02:46:50.892Z,213.15
2018-07-06T02:49:39.107Z,225.65
2018-07-06T02:52:27.068Z,234.40
2018-07-06T02:55:14.622Z,210.28
2018-07-06T02:58:02.261Z,225.00
2018-07-06T03:00:50.124Z,221.70
2018-07-06T03:03:37.912Z,225.55
2018-07-06T03:06:26.010Z,223.93
2018-07-06T03:09:13.524Z,255.25
2018-07-06T03:12:00.919Z,236.12
2018-07-06T03:14:48.483Z,234.83
2018-07-06T03:17:36.604Z,228.18
2018-07-06T03:20:24.481Z,229.07
2018-07-06T03:23:11.983Z,213.30
2018-07-06T03:26:00.133Z,224.60
2018-07-06T03:28:48.399Z,225.53
2018-07-06T03:31:36.131Z,231.50
2018-07-06T03:34:23.722Z,213.90
2018-07-06T03:37:11.538Z,215.30
2018-07-06T03:39:59.269Z,219.40
2018-07-06T03:42:46.655Z,220.02
2018-07-06T03:45:34.602Z,228.15
2018-07-06T03:48:26.488Z,229.47
2018-07-06T03:51:14.495Z,227.70
2018-07-06T03:54:02.261Z,236.22
2018-07-06T03:56:50.008Z,211.10
2018-07-06T03:59:37.591Z,218.15
2018-07-06T04:02:25.902Z,219.95
2018-07-06T04:05:13.673Z,224.85
2018-07-06T04:08:01.719Z,216.30
2018-07-06T04:10:49.380Z,222.40
2018-07-06T04:13:37.064Z,212.17
2018-07-06T04:16:25.265Z,218.48
2018-07-06T04:19:13.427Z,213.75
2018-07-06T04:22:01.097Z,216.90
2018-07-06T04:24:48.639Z,215.40
2018-07-06T04:27:36.283Z,214.72
2018-07-06T04:30:24.122Z,210.17
2018-07-06T04:33:12.040Z,216.40
2018-07-06T04:35:59.809Z,216.42
2018-07-06T04:38:47.676Z,210.90
2018-07-06T04:41:35.373Z,209.47
2018-07-06T04:44:23.301Z,209.60
2018-07-06T04:47:10.821Z,216.27
2018-07-06T04:49:58.548Z,212.02
2018-07-06T04:52:46.248Z,213.15
2018-07-06T04:55:33.808Z,211.45
2018-07-06T04:58:21.699Z,207.95
2018-07-06T05:01:09.396Z,209.92
2018-07-06T05:03:57.007Z,213.70
2018-07-06T05:06:45.222Z,215.05
2018-07-06T05:09:33.086Z,216.45
2018-07-06T05:12:20.668Z,211.62
2018-07-06T05:15:08.440Z,217.87
2018-07-06T05:17:56.391Z,217.45
2018-07-06T05:20:44.265Z,224.15
2018-07-06T05:23:31.981Z,215.47
2018-07-06T05:26:19.775Z,217.62
2018-07-06T05:29:07.637Z,222.02
2018-07-06T05:31:55.603Z,214.68
2018-07-06T05:34:43.460Z,212.45
2018-07-06T05:37:31.307Z,220.90
2018-07-06T05:40:18.918Z,219.43
2018-07-06T05:43:06.783Z,229.43
2018-07-06T05:45:54.186Z,220.35
2018-07-06T05:48:41.770Z,224.73
2018-07-06T05:51:31.567Z,216.55
2018-07-06T05:54:21.146Z,225.57
2018-07-06T05:57:11.796Z,223.95
2018-07-06T06:00:00.463Z,215.20
2018-07-06T06:02:48.495Z,222.02
2018-07-06T06:05:36.870Z,217.65
2018-07-06T06:08:18.165Z,221.55
2018-07-06T06:10:50.136Z,218.80
2018-07-06T06:13:50.110Z,206.70
2018-07-06T06:16:27.332Z,214.88
2018-07-06T06:18:58.643Z,217.77
2018-07-06T06:21:29.998Z,212.82
2018-07-06T06:24:01.294Z,215.03
2018-07-06T06:26:33.115Z,211.45
2018-07-06T06:29:04.352Z,213.72
2018-07-06T06:31:35.677Z,216.78
2018-07-06T06:34:06.908Z,219.97
2018-07-06T06:36:38.251Z,213.77
2018-07-06T06:39:09.670Z,220.70
2018-07-06T06:41:41.580Z,215.22
2018-07-06T06:44:12.852Z,213.52
2018-07-06T06:46:44.518Z,211.50
2018-07-06T06:49:15.825Z,222.95
2018-07-06T06:51:47.789Z,214.27
2018-07-06T06:54:19.122Z,232.05
2018-07-06T06:56:50.291Z,219.05
2018-07-06T06:59:22.019Z,221.70
2018-07-06T07:01:53.589Z,229.97
2018-07-06T07:04:36.264Z,232.10
2018-07-06T07:07:26.733Z,236.25
2018-07-06T07:10:08.463Z,232.15
2018-07-06T07:12:56.694Z,238.05
2018-07-06T07:15:39.290Z,231.28
2018-07-06T07:18:12.257Z,231.90
2018-07-06T07:20:45.263Z,227.60
2018-07-06T07:23:18.094Z,221.20
2018-07-06T07:25:49.565Z,218.07
2018-07-06T07:28:20.887Z,222.40
2018-07-06T07:30:55.380Z,222.75
2018-07-06T07:33:26.767Z,214.65
2018-07-06T07:35:58.310Z,231.13
2018-07-06T07:38:29.772Z,220.73
2018-07-06T07:41:01.119Z,214.35
2018-07-06T07:43:32.586Z,214.32
2018-07-06T07:46:04.505Z,220.00
2018-07-06T07:48:40.665Z,216.27
2018-07-06T07:52:00.785Z,227.82
2018-07-06T07:54:40.018Z,216.90
2018-07-06T07:57:20.011Z,223.05
2018-07-06T08:00:03.705Z,223.35
2018-07-06T08:02:35.116Z,216.20
2018-07-06T08:05:10.516Z,225.30
2018-07-06T08:07:41.721Z,220.33
2018-07-06T08:10:13.207Z,212.90
2018-07-06T08:12:44.436Z,217.05
2018-07-06T08:15:15.738Z,222.85
2018-07-06T08:17:47.046Z,218.42
2018-07-06T08:20:18.544Z,222.75
2018-07-06T08:22:49.832Z,221.10
2018-07-06T08:25:20.967Z,224.00
2018-07-06T08:27:52.523Z,236.28
2018-07-06T08:30:23.957Z,221.90
2018-07-06T08:32:55.534Z,221.97
2018-07-06T08:35:37.316Z,230.83
2018-07-06T08:38:20.155Z,226.42
2018-07-06T08:40:52.004Z,225.93
2018-07-06T08:43:23.696Z,225.45
2018-07-06T08:45:55.446Z,233.95
2018-07-06T08:48:27.359Z,228.00
2018-07-06T08:50:58.908Z,224.02
2018-07-06T08:53:30.640Z,227.97
2018-07-06T08:56:02.070Z,228.95
2018-07-06T08:58:33.509Z,219.43
2018-07-06T09:01:05.122Z,225.57
2018-07-06T09:03:36.455Z,226.27
2018-07-06T09:06:07.942Z,223.70
2018-07-06T09:08:39.955Z,215.28
2018-07-06T09:11:11.539Z,220.45
2018-07-06T09:13:43.119Z,216.88
2018-07-06T09:16:14.808Z,212.42
2018-07-06T09:18:46.368Z,224.67
2018-07-06T09:21:18.156Z,233.05
2018-07-06T09:23:50.185Z,220.93
2018-07-06T09:26:21.744Z,231.23
2018-07-06T09:29:01.435Z,222.78
2018-07-06T09:31:37.754Z,228.98
2018-07-06T09:34:10.732Z,225.43
2018-07-06T09:36:42.352Z,226.65
2018-07-06T09:39:14.389Z,226.07
2018-07-06T09:41:50.544Z,228.75
2018-07-06T09:44:22.828Z,222.50
2018-07-06T09:46:54.396Z,244.05
2018-07-06T09:49:29.094Z,236.37
2018-07-06T09:52:01.014Z,236.70
2018-07-06T09:54:39.541Z,242.57
2018-07-06T09:57:13.588Z,251.67
2018-07-06T09:59:48.869Z,236.15
2018-07-06T10:02:20.583Z,232.90
2018-07-06T10:04:51.864Z,241.48
2018-07-06T10:07:25.004Z,240.70
2018-07-06T10:09:56.468Z,258.63
2018-07-06T10:12:31.404Z,268.67
2018-07-06T10:15:04.076Z,251.95
2018-07-06T10:17:36.246Z,245.17
2018-07-06T10:20:08.617Z,239.88
2018-07-06T10:22:40.589Z,248.87
2018-07-06T10:25:12.675Z,253.77
2018-07-06T10:27:57.562Z,247.82
2018-07-06T10:31:15.349Z,249.77
2018-07-06T10:33:46.960Z,242.65
2018-07-06T10:36:18.268Z,245.25
2018-07-06T10:38:49.836Z,238.20
2018-07-06T10:41:26.095Z,245.67
2018-07-06T10:43:57.847Z,229.30
2018-07-06T10:46:29.196Z,249.58
2018-07-06T10:49:00.525Z,238.03
2018-07-06T10:51:32.881Z,239.97
2018-07-06T10:54:14.306Z,258.10
2018-07-06T10:56:48.778Z,238.62
2018-07-06T10:59:34.199Z,258.68
2018-07-06T11:02:31.797Z,232.25
2018-07-06T11:05:08.755Z,239.55
2018-07-06T11:07:48.424Z,249.35
2018-07-06T11:10:20.391Z,256.63
2018-07-06T11:12:51.992Z,252.25
2018-07-06T11:15:23.565Z,234.15
2018-07-06T11:17:54.797Z,242.22
2018-07-06T11:20:26.484Z,235.50
2018-07-06T11:22:57.987Z,233.40
2018-07-06T11:25:29.840Z,224.30
2018-07-06T11:28:01.137Z,248.87
2018-07-06T11:30:34.404Z,249.92
2018-07-06T11:33:06.291Z,233.65
2018-07-06T11:35:37.640Z,245.52
2018-07-06T11:38:09.221Z,237.20
2018-07-06T11:40:40.541Z,258.75
2018-07-06T11:43:12.032Z,238.60
2018-07-06T11:45:43.601Z,230.62
2018-07-06T11:48:15.065Z,234.32
2018-07-06T11:50:47.311Z,229.90
2018-07-06T11:53:18.701Z,251.90
2018-07-06T11:55:50.218Z,243.00
2018-07-06T11:58:21.777Z,234.07
2018-07-06T12:00:53.274Z,232.27
2018-07-06T12:03:24.634Z,238.75
2018-07-06T12:05:57.385Z,240.52
2018-07-06T12:08:29.362Z,240.82
2018-07-06T12:11:00.836Z,246.32
2018-07-06T12:13:32.452Z,238.77
2018-07-06T12:16:03.971Z,242.90
2018-07-06T12:18:35.431Z,229.07
2018-07-06T12:21:07.066Z,231.38
2018-07-06T12:23:38.578Z,260.00
2018-07-06T12:26:09.834Z,236.68
2018-07-06T12:28:41.244Z,225.40
2018-07-06T12:31:12.619Z,235.15
2018-07-06T12:33:44.143Z,235.02
2018-07-06T12:36:16.064Z,241.45
2018-07-06T12:38:47.939Z,242.82
2018-07-06T12:41:20.502Z,264.65
2018-07-06T12:43:51.969Z,249.20
2018-07-06T12:46:23.318Z,242.82
2018-07-06T12:48:54.494Z,236.20
2018-07-06T12:51:27.559Z,247.93
2018-07-06T12:53:58.945Z,238.25
2018-07-06T12:56:44.227Z,223.43
2018-07-06T12:59:18.683Z,236.28
2018-07-06T13:01:49.990Z,232.67
2018-07-06T13:04:21.359Z,220.65
2018-07-06T13:06:52.734Z,220.52
2018-07-06T13:09:24.157Z,210.28
2018-07-06T13:11:55.583Z,215.68
2018-07-06T13:14:27.042Z,212.57
2018-07-06T13:16:58.827Z,213.25
2018-07-06T13:19:30.556Z,217.28
2018-07-06T13:22:02.574Z,220.45
2018-07-06T13:24:33.874Z,219.47
2018-07-06T13:27:05.169Z,224.05
2018-07-06T13:29:36.765Z,219.80
2018-07-06T13:32:08.222Z,223.10
2018-07-06T13:34:39.803Z,223.82
2018-07-06T13:37:11.152Z,211.25
2018-07-06T13:39:42.731Z,223.57
2018-07-06T13:42:14.529Z,231.53
2018-07-06T13:44:46.045Z,218.35
2018-07-06T13:47:18.156Z,211.87
2018-07-06T13:49:49.647Z,213.90
2018-07-06T13:52:20.983Z,203.27
2018-07-06T13:54:52.502Z,205.62
2018-07-06T13:57:23.920Z,203.25
2018-07-06T13:59:55.296Z,215.68
2018-07-06T14:02:26.540Z,213.92
2018-07-06T14:05:09.809Z,206.25
2018-07-06T14:07:41.357Z,212.72
2018-07-06T14:10:12.909Z,209.25
2018-07-06T14:12:44.504Z,215.87
2018-07-06T14:15:15.963Z,212.27
2018-07-06T14:17:47.425Z,212.02
2018-07-06T14:20:18.851Z,218.05
2018-07-06T14:22:50.314Z,231.43
2018-07-06T14:25:21.666Z,234.12
2018-07-06T14:27:53.026Z,209.65
2018-07-06T14:30:24.343Z,218.88
2018-07-06T14:32:55.698Z,217.20
2018-07-06T14:35:26.837Z,217.65
2018-07-06T14:37:58.688Z,198.78
2018-07-06T14:40:30.043Z,201.82
2018-07-06T14:43:02.435Z,208.65
2018-07-06T14:45:33.805Z,221.05
2018-07-06T14:48:05.252Z,207.72
2018-07-06T14:50:36.680Z,207.30
2018-07-06T14:53:08.087Z,218.17
2018-07-06T14:55:39.577Z,206.00
2018-07-06T14:58:10.897Z,216.33
2018-07-06T15:00:42.343Z,218.37
2018-07-06T15:03:13.772Z,203.40
2018-07-06T15:05:45.611Z,207.98
2018-07-06T15:08:16.990Z,211.82
2018-07-06T15:10:48.456Z,206.47
2018-07-06T15:13:20.024Z,204.43
2018-07-06T15:15:51.457Z,206.75
2018-07-06T15:18:22.895Z,208.35
2018-07-06T15:20:54.133Z,215.65
2018-07-06T15:23:25.341Z,207.30
2018-07-06T15:25:56.674Z,203.95
2018-07-06T15:28:28.165Z,204.15
2018-07-06T15:30:59.526Z,206.17
2018-07-06T15:33:31.195Z,202.75
2018-07-06T15:36:02.628Z,206.85
2018-07-06T15:38:34.239Z,204.82
2018-07-06T15:41:05.709Z,209.62
2018-07-06T15:43:37.391Z,206.15
2018-07-06T15:46:09.169Z,206.72
2018-07-06T15:48:40.600Z,204.93
2018-07-06T15:51:12.328Z,210.02
2018-07-06T15:53:44.056Z,211.03
2018-07-06T15:56:15.413Z,217.80
2018-07-06T15:58:46.934Z,214.97
2018-07-06T16:01:19.204Z,211.32
2018-07-06T16:03:50.454Z,208.43
2018-07-06T16:06:22.901Z,212.45
2018-07-06T16:08:56.539Z,211.25
2018-07-06T16:11:31.368Z,207.47
2018-07-06T16:14:06.924Z,208.05
2018-07-06T16:16:45.893Z,208.35
2018-07-06T16:19:20.325Z,209.05
2018-07-06T16:21:52.357Z,198.45
2018-07-06T16:24:24.743Z,212.05
2018-07-06T16:26:57.283Z,218.48
2018-07-06T16:29:30.354Z,214.68
2018-07-06T16:32:03.403Z,207.27
2018-07-06T16:34:36.679Z,213.90
2018-07-06T16:37:09.611Z,207.52
2018-07-06T16:39:42.279Z,196.22
2018-07-06T16:42:14.457Z,200.07
2018-07-06T16:44:47.148Z,200.38
2018-07-06T16:47:19.140Z,199.02
2018-07-06T16:49:51.298Z,197.17
2018-07-06T16:52:24.083Z,201.02
2018-07-06T16:54:56.739Z,202.97
2018-07-06T16:57:28.135Z,197.87
2018-07-06T16:59:59.522Z,196.85
2018-07-06T17:02:30.900Z,198.95
2018-07-06T17:05:02.114Z,193.40
2018-07-06T17:07:33.572Z,193.30
2018-07-06T17:10:05.013Z,201.95
2018-07-06T17:12:37.185Z,201.32
2018-07-06T17:15:08.520Z,193.95
2018-07-06T17:17:40.259Z,205.22
2018-07-06T17:20:13.122Z,205.07
2018-07-06T17:22:44.473Z,215.10
2018-07-06T17:25:15.837Z,207.85
2018-07-06T17:27:48.469Z,197.30
2018-07-06T17:30:20.039Z,201.70
2018-07-06T17:32:51.664Z,199.50
2018-07-06T17:35:23.064Z,197.87
2018-07-06T17:37:54.792Z,197.95
2018-07-06T17:40:26.428Z,194.65
2018-07-06T17:42:57.585Z,194.65
2018-07-06T17:45:29.085Z,195.77
2018-07-06T17:48:00.693Z,188.52
2018-07-06T17:50:32.092Z,191.32
2018-07-06T17:53:03.498Z,189.60
2018-07-06T17:55:34.973Z,191.03
2018-07-06T17:58:06.317Z,191.25
2018-07-06T18:00:38.704Z,189.62
2018-07-06T18:03:09.925Z,200.00
2018-07-06T18:05:41.349Z,197.07
2018-07-06T18:08:12.855Z,185.50
2018-07-06T18:10:44.646Z,190.85
2018-07-06T18:13:15.939Z,187.70
2018-07-06T18:15:47.542Z,193.55
2018-07-06T18:18:18.805Z,195.12
2018-07-06T18:20:50.340Z,192.90
2018-07-06T18:23:21.963Z,195.12
2018-07-06T18:25:53.626Z,195.15
2018-07-06T18:28:25.913Z,193.70
2018-07-06T18:30:58.950Z,194.95
2018-07-06T18:33:31.126Z,202.18
2018-07-06T18:36:04.614Z,191.28
2018-07-06T18:38:37.230Z,196.05
2018-07-06T18:41:11.109Z,293.60
2018-07-06T18:43:44.811Z,204.65
2018-07-06T18:46:19.429Z,198.40
2018-07-06T18:48:51.460Z,191.77
2018-07-06T18:51:24.310Z,194.35
2018-07-06T18:53:57.256Z,192.37
2018-07-06T18:56:29.100Z,193.90
2018-07-06T18:59:01.140Z,191.85
2018-07-06T19:01:33.711Z,191.53
2018-07-06T19:04:05.680Z,189.75
2018-07-06T19:06:37.959Z,193.07
2018-07-06T19:09:11.388Z,189.03
2018-07-06T19:11:43.182Z,194.15
2018-07-06T19:14:15.392Z,192.40
2018-07-06T19:16:46.889Z,196.75
2018-07-06T19:19:18.454Z,192.13
2018-07-06T19:21:49.996Z,193.72
2018-07-06T19:24:21.552Z,194.10
2018-07-06T19:26:52.955Z,193.22
2018-07-06T19:29:24.318Z,190.73
2018-07-06T19:31:55.794Z,194.43
2018-07-06T19:34:27.340Z,193.25
2018-07-06T19:36:58.648Z,189.62
2018-07-06T19:39:30.263Z,189.75
2018-07-06T19:42:01.809Z,190.07
2018-07-06T19:44:33.118Z,195.45
2018-07-06T19:47:04.369Z,190.38
2018-07-06T19:49:35.781Z,189.43
2018-07-06T19:52:07.149Z,192.95
2018-07-06T19:54:38.849Z,190.10
2018-07-06T19:57:10.709Z,192.80
2018-07-06T19:59:42.042Z,185.48
2018-07-06T20:02:13.582Z,188.50
2018-07-06T20:04:44.770Z,191.10
2018-07-06T20:07:17.000Z,192.95
2018-07-06T20:09:48.524Z,192.15
2018-07-06T20:12:19.935Z,187.37
2018-07-06T20:14:52.613Z,207.62
2018-07-06T20:17:24.096Z,185.97
2018-07-06T20:19:55.340Z,187.18
2018-07-06T20:22:29.248Z,185.15
2018-07-06T20:25:00.628Z,185.50
2018-07-06T20:27:32.830Z,185.15
2018-07-06T20:30:04.442Z,186.47
2018-07-06T20:32:35.908Z,184.67
2018-07-06T20:35:07.225Z,185.85
2018-07-06T20:37:40.298Z,184.75
2018-07-06T20:40:12.131Z,194.02
2018-07-06T20:42:44.348Z,188.42
2018-07-06T20:45:15.769Z,190.88
2018-07-06T20:47:47.888Z,190.80
2018-07-06T20:50:19.362Z,191.18
2018-07-06T20:52:50.676Z,189.13
2018-07-06T20:55:21.961Z,186.62
2018-07-06T20:57:53.639Z,184.90
2018-07-06T21:00:24.990Z,190.80
2018-07-06T21:02:56.468Z,190.00
2018-07-06T21:05:27.744Z,189.67
2018-07-06T21:07:59.553Z,194.13
2018-07-06T21:10:31.106Z,187.65
2018-07-06T21:13:02.843Z,186.40
2018-07-06T21:15:34.249Z,188.37
2018-07-06T21:18:05.631Z,190.55
2018-07-06T21:20:37.038Z,189.90
2018-07-06T21:23:08.907Z,190.88
2018-07-06T21:25:40.688Z,189.50
2018-07-06T21:28:11.948Z,191.28
2018-07-06T21:30:43.287Z,192.03
2018-07-06T21:33:14.968Z,190.53
2018-07-06T21:35:46.390Z,192.35
2018-07-06T21:38:17.856Z,188.68
2018-07-06T21:40:49.150Z,193.57
2018-07-06T21:43:20.679Z,187.70
2018-07-06T21:45:51.767Z,185.50
2018-07-06T21:48:23.933Z,185.03
2018-07-06T21:50:55.193Z,188.55
2018-07-06T21:53:26.623Z,188.95
2018-07-06T21:55:58.108Z,187.05
2018-07-06T21:58:30.011Z,186.80
2018-07-06T22:01:01.428Z,191.37
2018-07-06T22:03:32.869Z,189.05
2018-07-06T22:06:04.368Z,191.10
2018-07-06T22:08:35.631Z,191.92
2018-07-06T22:11:07.028Z,188.27
2018-07-06T22:13:38.485Z,190.00
2018-07-06T22:16:09.734Z,185.75
2018-07-06T22:18:41.108Z,195.30
2018-07-06T22:21:12.409Z,195.57
2018-07-06T22:23:44.688Z,193.78
2018-07-06T22:26:17.156Z,194.32
2018-07-06T22:28:52.056Z,194.05
2018-07-06T22:31:23.834Z,189.40
2018-07-06T22:33:55.289Z,193.47
2018-07-06T22:36:26.537Z,185.40
2018-07-06T22:38:58.648Z,189.87
2018-07-06T22:41:30.143Z,193.20
2018-07-06T22:44:01.790Z,190.55
2018-07-06T22:46:33.178Z,193.70
2018-07-06T22:49:04.748Z,191.55
2018-07-06T22:51:36.282Z,189.65
2018-07-06T22:54:07.599Z,189.47
2018-07-06T22:56:38.907Z,187.82
2018-07-06T22:59:10.152Z,191.25
2018-07-06T23:01:41.786Z,192.47
2018-07-06T23:04:13.456Z,191.65
2018-07-06T23:06:45.168Z,190.65
2018-07-06T23:09:16.425Z,191.53
2018-07-06T23:11:47.790Z,193.25
2018-07-06T23:14:19.004Z,191.95
2018-07-06T23:16:50.445Z,189.43
2018-07-06T23:19:21.976Z,190.05
2018-07-06T23:21:53.464Z,191.70
2018-07-06T23:24:24.730Z,193.70
2018-07-06T23:26:56.110Z,188.60
2018-07-06T23:29:27.580Z,190.43
2018-07-06T23:31:58.896Z,191.40
2018-07-06T23:34:30.419Z,193.00
2018-07-06T23:37:01.737Z,191.45
2018-07-06T23:39:33.165Z,188.10
2018-07-06T23:42:04.563Z,192.43
2018-07-06T23:44:35.942Z,199.93
2018-07-06T23:47:07.187Z,199.27
2018-07-06T23:49:38.821Z,195.82
2018-07-06T23:52:10.411Z,197.37
2018-07-06T23:54:41.762Z,195.72
2018-07-06T23:57:13.082Z,191.68
2018-07-06T23:59:44.302Z,194.50
